Time;durP1;ratioP1;P1;durP2;ratioP2;P2;SDS_P1;SDS_P2;PMS_P1;PMS_P2;Temp;Humidity;BMP_temperature;BMP_pressure;BME280_temperature;BME280_humidity;BME280_pressure;Samples;Min_cycle;Max_cycle;Signal;HPM_P1;HPM_P2
2024/03/06 00:00:17;;;;;;;22.10;21.20;;;20.60;55.20;;;;;;4959915;28;20452;-64
2024/03/06 00:02:45;;;;;;;22.00;21.10;;;20.70;55.20;;;;;;4974530;28;20443;-63
2024/03/06 00:05:13;;;;;;;22.27;21.37;;;20.60;55.20;;;;;;4974397;28;20873;-63
2024/03/06 00:07:39;;;;;;;22.07;21.17;;;20.70;55.30;;;;;;4974593;28;20444;-64
2024/03/06 00:10:07;;;;;;;21.87;21.07;;;20.60;55.20;;;;;;4971180;28;20862;-63
2024/03/06 00:12:34;;;;;;;22.27;21.20;;;20.60;55.20;;;;;;4954835;28;21014;-63
2024/03/06 00:15:02;;;;;;;22.10;21.10;;;20.60;55.20;;;;;;4954893;28;20465;-63
2024/03/06 00:17:28;;;;;;;22.67;21.77;;;20.60;55.20;;;;;;4955255;28;20488;-63
2024/03/06 00:19:56;;;;;;;21.90;20.60;;;20.60;55.30;;;;;;4956094;28;20460;-63
2024/03/06 00:22:23;;;;;;;21.87;21.03;;;20.60;55.30;;;;;;4974060;28;20439;-63
2024/03/06 00:24:50;;;;;;;22.63;21.53;;;20.60;55.30;;;;;;4974006;28;20491;-63
2024/03/06 00:27:17;;;;;;;21.83;20.80;;;20.60;55.30;;;;;;4974064;28;20456;-63
2024/03/06 00:29:44;;;;;;;22.30;21.30;;;20.60;55.30;;;;;;4974181;28;20459;-63
2024/03/06 00:32:11;;;;;;;21.87;20.90;;;20.60;55.40;;;;;;4955043;28;20468;-63
2024/03/06 00:34:37;;;;;;;22.03;21.13;;;20.60;55.40;;;;;;4954706;28;20800;-63
2024/03/06 00:37:06;;;;;;;21.83;20.93;;;20.60;55.40;;;;;;4954948;28;20909;-63
2024/03/06 00:39:32;;;;;;;21.90;21.00;;;20.60;55.50;;;;;;4965564;28;20964;-63
2024/03/06 00:41:59;;;;;;;21.30;20.40;;;20.60;55.50;;;;;;4958736;28;20441;-63
2024/03/06 00:44:26;;;;;;;22.03;21.13;;;20.60;55.50;;;;;;4954992;28;20484;-63
2024/03/06 00:46:53;;;;;;;21.53;20.70;;;20.60;55.50;;;;;;4954611;28;20830;-63
2024/03/06 00:49:20;;;;;;;22.43;21.40;;;20.60;55.50;;;;;;4963564;28;20444;-63
2024/03/06 00:51:46;;;;;;;22.03;21.13;;;20.60;55.50;;;;;;4973342;28;20447;-63
2024/03/06 00:54:14;;;;;;;22.70;21.50;;;20.50;55.50;;;;;;4973616;28;20467;-63
2024/03/06 00:56:41;;;;;;;21.27;20.37;;;20.50;55.50;;;;;;4973520;28;20514;-63
2024/03/06 00:59:08;;;;;;;21.50;20.60;;;20.50;55.50;;;;;;4966224;28;20454;-63
2024/03/06 01:01:35;;;;;;;22.50;21.50;;;20.50;55.50;;;;;;4954228;28;20444;-63
2024/03/06 01:04:02;;;;;;;22.17;21.20;;;20.50;55.50;;;;;;4954104;28;20923;-63
2024/03/06 01:06:29;;;;;;;21.57;20.67;;;20.50;55.50;;;;;;4954164;28;20472;-63
2024/03/06 01:08:56;;;;;;;21.80;20.90;;;20.50;55.50;;;;;;4954371;28;20445;-63
2024/03/06 01:11:26;;;;;;;21.83;20.90;;;20.50;55.60;;;;;;4954294;28;20455;-63
2024/03/06 01:13:52;;;;;;;22.47;21.47;;;20.50;55.60;;;;;;4953866;28;20504;-65
2024/03/06 01:16:20;;;;;;;21.40;20.57;;;20.50;55.60;;;;;;4954339;28;20453;-64
2024/03/06 01:18:46;;;;;;;22.00;21.00;;;20.50;56.10;;;;;;4957612;28;20452;-64
2024/03/06 01:21:13;;;;;;;22.10;21.10;;;20.50;55.60;;;;;;4973417;28;20885;-65
2024/03/06 01:23:40;;;;;;;25.03;23.97;;;20.50;55.60;;;;;;4972724;28;20455;-64
2024/03/06 01:26:06;;;;;;;22.00;21.00;;;20.50;55.60;;;;;;4973219;28;20976;-64
2024/03/06 01:28:35;;;;;;;21.37;20.47;;;20.50;55.60;;;;;;4971450;28;20439;-64
2024/03/06 01:31:02;;;;;;;22.10;21.20;;;20.50;55.60;;;;;;4954086;28;20453;-64
2024/03/06 01:33:29;;;;;;;22.27;21.30;;;20.40;55.60;;;;;;4953539;28;20449;-64
2024/03/06 01:35:56;;;;;;;22.27;21.27;;;20.40;55.60;;;;;;4953782;28;20523;-64
2024/03/06 01:38:22;;;;;;;21.70;20.80;;;20.40;55.60;;;;;;4953769;28;20930;-65
2024/03/06 01:40:49;;;;;;;22.00;21.10;;;20.40;55.70;;;;;;4954185;28;20445;-64
2024/03/06 01:43:21;;;;;;;22.50;21.40;;;20.40;55.70;;;;;;4953476;28;20942;-65
2024/03/06 01:45:50;;;;;;;21.67;20.73;;;20.40;55.70;;;;;;4953598;28;20491;-64
2024/03/06 01:48:18;;;;;;;22.17;21.27;;;20.40;55.70;;;;;;4966297;28;20517;-64
2024/03/06 01:50:45;;;;;;;21.63;20.73;;;20.40;55.70;;;;;;4973005;28;20822;-64
2024/03/06 01:53:14;;;;;;;22.00;21.10;;;20.40;55.70;;;;;;4972552;28;20933;-65
2024/03/06 01:55:40;;;;;;;21.60;20.70;;;20.40;55.70;;;;;;4972935;28;20487;-64
2024/03/06 01:58:09;;;;;;;22.30;21.30;;;20.40;55.70;;;;;;4961748;28;20448;-64
2024/03/06 02:00:36;;;;;;;21.77;20.83;;;20.40;55.70;;;;;;4953634;28;20535;-64
2024/03/06 02:03:05;;;;;;;21.63;20.73;;;20.40;55.70;;;;;;4955745;28;20437;-64
2024/03/06 02:05:33;;;;;;;21.60;20.70;;;20.40;55.70;;;;;;4957290;28;20493;-64
2024/03/06 02:08:00;;;;;;;21.90;20.90;;;20.40;55.70;;;;;;4966790;28;20439;-65
2024/03/06 02:10:27;;;;;;;21.97;20.97;;;20.40;55.70;;;;;;4976615;28;20999;-64
2024/03/06 02:12:54;;;;;;;22.00;21.07;;;20.40;55.70;;;;;;4976149;28;20439;-64
2024/03/06 02:15:21;;;;;;;22.90;21.90;;;20.40;55.70;;;;;;4976472;28;20468;-65
2024/03/06 02:17:48;;;;;;;21.70;20.80;;;20.40;55.80;;;;;;4975094;28;20443;-64
2024/03/06 02:20:16;;;;;;;22.13;21.10;;;20.40;55.80;;;;;;4976398;28;20541;-64
2024/03/06 02:22:45;;;;;;;22.10;21.10;;;20.40;55.80;;;;;;4975960;28;20454;-64
2024/03/06 02:25:12;;;;;;;22.50;21.57;;;20.40;55.70;;;;;;4976189;28;20892;-64
2024/03/06 02:27:39;;;;;;;21.43;20.53;;;20.40;55.70;;;;;;4974629;28;20435;-64
2024/03/06 02:30:07;;;;;;;21.50;20.60;;;20.40;55.80;;;;;;4976167;28;20444;-64
2024/03/06 02:32:34;;;;;;;21.60;20.70;;;20.40;55.80;;;;;;4975762;28;20951;-64
2024/03/06 02:35:03;;;;;;;23.37;22.27;;;20.40;55.70;;;;;;4976266;28;21052;-64
2024/03/06 02:37:30;;;;;;;22.40;21.40;;;20.40;55.70;;;;;;4962251;28;21009;-64
2024/03/06 02:39:59;;;;;;;21.43;20.53;;;20.40;55.70;;;;;;4956589;28;20448;-64
2024/03/06 02:42:27;;;;;;;22.13;21.23;;;20.40;55.70;;;;;;4956343;28;20456;-64
2024/03/06 02:44:54;;;;;;;22.53;21.53;;;20.30;55.70;;;;;;4956568;28;20484;-64
2024/03/06 02:47:21;;;;;;;22.20;21.20;;;20.40;55.80;;;;;;4968205;28;20455;-64
2024/03/06 02:49:47;;;;;;;22.03;20.93;;;20.40;55.80;;;;;;4975657;28;20451;-65
2024/03/06 02:52:14;;;;;;;22.40;21.30;;;20.30;55.90;;;;;;4975434;28;20567;-64
2024/03/06 02:54:42;;;;;;;22.20;21.20;;;20.30;55.80;;;;;;4971863;28;20531;-64
2024/03/06 02:57:10;;;;;;;22.93;21.93;;;20.30;55.80;;;;;;4956356;28;20531;-64
2024/03/06 02:59:35;;;;;;;22.10;21.10;;;20.30;55.80;;;;;;4956232;28;20457;-64
2024/03/06 03:02:03;;;;;;;21.90;21.00;;;20.30;55.80;;;;;;4955940;28;20814;-64
2024/03/06 03:04:30;;;;;;;21.53;20.63;;;20.30;55.70;;;;;;4957738;28;20422;-64
2024/03/06 03:06:56;;;;;;;21.00;20.20;;;20.30;55.80;;;;;;4975685;28;20440;-65
2024/03/06 03:09:24;;;;;;;22.27;21.27;;;20.30;55.70;;;;;;4975281;28;20530;-64
2024/03/06 03:11:50;;;;;;;22.10;21.20;;;20.30;55.70;;;;;;4975278;28;20478;-64
2024/03/06 03:14:18;;;;;;;21.93;21.00;;;20.30;55.70;;;;;;4974438;28;20476;-65
2024/03/06 03:16:45;;;;;;;23.03;21.97;;;20.30;55.80;;;;;;4975141;28;20451;-64
2024/03/06 03:19:12;;;;;;;21.83;20.83;;;20.30;55.80;;;;;;4975347;28;20456;-64
2024/03/06 03:21:39;;;;;;;21.50;20.60;;;20.30;55.80;;;;;;4975291;28;20475;-64
2024/03/06 03:24:06;;;;;;;21.33;20.50;;;20.30;55.80;;;;;;4975111;28;20502;-64
2024/03/06 03:26:32;;;;;;;21.90;20.90;;;20.30;55.80;;;;;;4957527;28;20445;-64
2024/03/06 03:29:00;;;;;;;21.70;20.80;;;20.30;55.80;;;;;;4955802;28;20456;-65
2024/03/06 03:31:28;;;;;;;21.50;20.60;;;20.30;55.80;;;;;;4956068;28;20833;-64
2024/03/06 03:33:54;;;;;;;23.00;22.00;;;20.30;55.80;;;;;;4955247;28;20449;-65
2024/03/06 03:36:21;;;;;;;21.93;21.03;;;20.30;55.80;;;;;;4971037;28;20444;-64
2024/03/06 03:38:48;;;;;;;22.30;21.30;;;20.30;55.80;;;;;;4974979;28;20474;-64
2024/03/06 03:41:16;;;;;;;21.80;20.80;;;20.30;55.80;;;;;;4974948;28;20587;-64
2024/03/06 03:43:43;;;;;;;21.07;20.27;;;20.30;55.80;;;;;;4974918;28;20510;-64
2024/03/06 03:46:10;;;;;;;21.80;20.90;;;20.30;55.80;;;;;;4960644;28;20477;-65
2024/03/06 03:48:38;;;;;;;21.93;21.03;;;20.30;55.80;;;;;;4955602;28;20496;-64
2024/03/06 03:51:06;;;;;;;21.67;20.77;;;20.30;55.80;;;;;;4955484;28;20440;-64
2024/03/06 03:53:33;;;;;;;21.40;20.50;;;20.30;55.80;;;;;;4954878;28;20988;-64
2024/03/06 03:56:00;;;;;;;23.07;22.07;;;20.30;55.80;;;;;;4967300;28;20463;-64
2024/03/06 03:58:27;;;;;;;22.03;21.13;;;20.30;55.80;;;;;;4974433;28;20448;-64
2024/03/06 04:00:55;;;;;;;21.93;21.03;;;20.30;55.80;;;;;;4974791;28;20510;-64
2024/03/06 04:03:22;;;;;;;22.13;21.20;;;20.30;55.80;;;;;;4969486;28;20496;-64
2024/03/06 04:05:51;;;;;;;23.13;22.07;;;20.20;55.70;;;;;;4954886;28;20595;-64
2024/03/06 04:08:17;;;;;;;22.73;20.97;;;20.30;55.80;;;;;;4955140;28;20449;-64
2024/03/06 04:10:45;;;;;;;21.60;20.70;;;20.30;55.80;;;;;;4955418;28;20440;-64
2024/03/06 04:13:12;;;;;;;22.13;21.13;;;20.30;55.80;;;;;;4957737;28;20482;-64
2024/03/06 04:15:39;;;;;;;22.40;21.30;;;20.30;55.80;;;;;;4974202;28;20511;-64
2024/03/06 04:18:06;;;;;;;22.10;21.10;;;20.30;55.80;;;;;;4974331;28;20444;-64
2024/03/06 04:20:33;;;;;;;22.13;21.03;;;20.30;55.80;;;;;;4974215;28;20448;-64
2024/03/06 04:23:01;;;;;;;22.60;21.60;;;20.20;55.70;;;;;;4973562;28;20440;-64
2024/03/06 04:25:28;;;;;;;28.27;27.27;;;20.30;55.80;;;;;;4961330;28;21043;-64
2024/03/06 04:27:55;;;;;;;21.50;20.60;;;20.20;55.80;;;;;;4957215;28;20520;-64
2024/03/06 04:30:21;;;;;;;21.90;21.00;;;20.30;55.80;;;;;;4954677;28;20535;-64
2024/03/06 04:32:48;;;;;;;22.43;21.43;;;20.20;55.70;;;;;;4954288;28;20850;-64
2024/03/06 04:35:16;;;;;;;22.60;21.63;;;20.20;55.70;;;;;;4958002;28;20488;-63
2024/03/06 04:37:43;;;;;;;22.00;21.00;;;20.20;55.70;;;;;;4973884;28;20447;-64
2024/03/06 04:40:15;;;;;;;22.57;21.57;;;20.30;55.80;;;;;;4973833;28;20474;-64
2024/03/06 04:42:41;;;;;;;22.50;21.50;;;20.20;55.70;;;;;;4973552;28;20447;-64
2024/03/06 04:45:12;;;;;;;22.33;21.33;;;20.20;55.80;;;;;;4955955;28;20516;-64
2024/03/06 04:47:38;;;;;;;22.30;21.40;;;20.20;55.80;;;;;;4954945;28;20859;-64
2024/03/06 04:50:10;;;;;;;22.10;21.10;;;20.20;55.90;;;;;;4954494;28;20444;-64
2024/03/06 04:52:37;;;;;;;23.13;22.17;;;20.20;55.80;;;;;;4954188;28;20499;-64
2024/03/06 04:55:04;;;;;;;22.40;21.30;;;20.20;55.90;;;;;;4970831;28;20456;-64
2024/03/06 04:57:32;;;;;;;22.70;21.70;;;20.20;55.90;;;;;;4973891;28;20817;-64
2024/03/06 04:59:59;;;;;;;22.50;21.60;;;20.20;55.90;;;;;;4973653;28;20550;-64
2024/03/06 05:02:26;;;;;;;22.90;21.90;;;20.30;56.00;;;;;;4964350;28;20445;-64
2024/03/06 05:04:53;;;;;;;22.90;21.90;;;20.30;55.90;;;;;;4954409;28;20861;-63
2024/03/06 05:07:20;;;;;;;22.50;21.60;;;20.30;56.00;;;;;;4954294;28;20469;-63
2024/03/06 05:09:47;;;;;;;23.00;22.00;;;20.30;56.10;;;;;;4954647;28;20452;-63
2024/03/06 05:12:13;;;;;;;23.20;22.20;;;20.30;56.10;;;;;;4954115;28;20926;-63
2024/03/06 05:14:41;;;;;;;23.70;22.60;;;20.30;56.20;;;;;;4953893;28;20992;-63
2024/03/06 05:17:10;;;;;;;23.80;22.70;;;20.30;56.30;;;;;;4953924;28;20445;-63
2024/03/06 05:19:37;;;;;;;23.63;22.63;;;20.30;56.30;;;;;;4954046;28;20453;-63
2024/03/06 05:22:05;;;;;;;24.53;23.50;;;20.30;56.30;;;;;;4953961;28;20444;-63
2024/03/06 05:24:32;;;;;;;24.13;23.03;;;20.30;56.30;;;;;;4953816;29;20481;-64
2024/03/06 05:26:59;;;;;;;24.10;22.90;;;20.30;56.30;;;;;;4953839;28;21021;-64
2024/03/06 05:29:26;;;;;;;23.40;22.40;;;20.30;56.30;;;;;;4953822;28;20834;-63
2024/03/06 05:31:55;;;;;;;25.90;24.90;;;20.30;56.30;;;;;;4970074;28;20450;-64
2024/03/06 05:34:22;;;;;;;23.97;22.97;;;20.30;56.30;;;;;;4973186;28;21031;-63
2024/03/06 05:36:49;;;;;;;24.50;23.47;;;20.30;56.30;;;;;;4972969;28;20494;-63
2024/03/06 05:39:17;;;;;;;24.47;23.47;;;20.30;56.40;;;;;;4973185;28;20451;-63
2024/03/06 05:41:44;;;;;;;24.00;23.00;;;20.30;56.30;;;;;;4957525;28;20477;-63
2024/03/06 05:44:12;;;;;;;24.83;23.40;;;20.30;56.30;;;;;;4953722;28;20465;-64
2024/03/06 05:46:38;;;;;;;24.40;23.40;;;20.40;56.40;;;;;;4953647;28;20571;-63
2024/03/06 05:49:07;;;;;;;24.30;23.20;;;20.40;56.50;;;;;;4953599;28;20810;-64
2024/03/06 05:51:34;;;;;;;25.60;24.53;;;20.40;56.50;;;;;;4966966;28;20440;-65
2024/03/06 05:54:00;;;;;;;26.77;25.47;;;20.40;56.40;;;;;;4972636;28;20595;-63
2024/03/06 05:56:27;;;;;;;24.10;23.00;;;20.40;56.50;;;;;;4972850;28;20446;-64
2024/03/06 05:58:55;;;;;;;24.00;22.80;;;20.40;56.70;;;;;;4973042;28;20447;-63
2024/03/06 06:01:21;;;;;;;26.23;23.83;;;20.40;56.90;;;;;;4961150;28;20539;-63
2024/03/06 06:03:48;;;;;;;26.90;25.33;;;20.40;57.30;;;;;;4954015;28;20441;-63
2024/03/06 06:06:17;;;;;;;26.97;25.30;;;20.50;57.50;;;;;;4958057;28;20503;-65
2024/03/06 06:08:44;;;;;;;30.47;25.30;;;20.50;58.60;;;;;;4972740;28;20444;-65
2024/03/06 06:11:12;;;;;;;26.60;24.53;;;20.50;60.10;;;;;;4965820;28;20867;-64
2024/03/06 06:13:39;;;;;;;27.30;24.60;;;20.50;62.00;;;;;;4972216;28;20450;-65
2024/03/06 06:16:06;;;;;;;27.40;24.73;;;20.60;62.50;;;;;;4972684;28;20440;-65
2024/03/06 06:18:34;;;;;;;27.13;25.07;;;20.60;62.80;;;;;;4972456;28;20450;-65
2024/03/06 06:21:01;;;;;;;25.03;23.50;;;20.70;62.70;;;;;;4972500;28;20444;-65
2024/03/06 06:23:29;;;;;;;26.20;24.13;;;20.70;62.40;;;;;;4972202;28;20543;-65
2024/03/06 06:25:57;;;;;;;24.87;23.40;;;20.80;62.10;;;;;;4972288;28;20483;-65
2024/03/06 06:28:24;;;;;;;27.27;24.90;;;20.80;61.60;;;;;;4972464;28;20475;-65
2024/03/06 06:30:52;;;;;;;26.97;25.03;;;20.80;61.10;;;;;;4972537;28;20447;-65
2024/03/06 06:33:18;;;;;;;25.20;23.70;;;20.80;60.80;;;;;;4972259;28;20448;-65
2024/03/06 06:35:46;;;;;;;25.27;23.60;;;20.90;60.70;;;;;;4972466;28;20554;-65
2024/03/06 06:38:12;;;;;;;26.33;24.20;;;20.90;60.50;;;;;;4972610;28;20452;-65
2024/03/06 06:40:41;;;;;;;25.63;24.03;;;21.00;60.30;;;;;;4972260;28;20467;-64
2024/03/06 06:43:08;;;;;;;26.27;24.57;;;21.00;60.00;;;;;;4972042;28;20471;-65
2024/03/06 06:45:37;;;;;;;25.37;23.97;;;21.00;59.80;;;;;;4972233;28;20515;-65
2024/03/06 06:48:05;;;;;;;28.70;26.40;;;21.10;59.70;;;;;;4972937;28;20542;-65
2024/03/06 06:50:33;;;;;;;26.20;24.90;;;21.10;59.50;;;;;;4975715;28;20810;-65
2024/03/06 06:53:00;;;;;;;26.03;24.63;;;21.10;59.30;;;;;;4975502;28;20827;-65
2024/03/06 06:55:27;;;;;;;25.10;23.77;;;21.10;59.20;;;;;;4975591;28;20467;-65
2024/03/06 06:57:55;;;;;;;25.60;24.07;;;21.20;59.10;;;;;;4975655;28;20813;-65
2024/03/06 07:00:22;;;;;;;26.03;24.47;;;21.20;59.00;;;;;;4975497;28;20451;-64
2024/03/06 07:02:50;;;;;;;26.47;25.17;;;21.20;58.90;;;;;;4975479;28;20878;-64
2024/03/06 07:05:17;;;;;;;28.80;26.90;;;21.20;58.80;;;;;;4975374;28;20884;-64
2024/03/06 07:07:45;;;;;;;27.10;25.80;;;21.30;58.70;;;;;;4975556;28;20471;-65
2024/03/06 07:10:12;;;;;;;27.83;26.33;;;21.30;58.60;;;;;;4975337;28;20444;-65
2024/03/06 07:12:39;;;;;;;28.03;26.37;;;21.40;58.50;;;;;;4974964;28;20960;-65
2024/03/06 07:15:08;;;;;;;29.00;26.90;;;21.40;58.40;;;;;;4975588;28;20495;-64
2024/03/06 07:17:35;;;;;;;25.93;24.83;;;21.40;58.30;;;;;;4975166;28;20444;-64
2024/03/06 07:20:04;;;;;;;27.03;25.70;;;21.40;58.10;;;;;;4975179;28;20846;-64
2024/03/06 07:22:31;;;;;;;26.97;25.57;;;21.40;58.00;;;;;;4974691;28;20447;-64
2024/03/06 07:24:58;;;;;;;27.10;25.90;;;21.50;58.00;;;;;;4975209;28;20464;-64
2024/03/06 07:27:25;;;;;;;26.47;25.37;;;21.50;57.90;;;;;;4975011;28;20479;-65
2024/03/06 07:29:51;;;;;;;26.60;25.30;;;21.50;57.90;;;;;;4975008;28;20447;-65
2024/03/06 07:32:20;;;;;;;27.13;25.83;;;21.60;57.90;;;;;;4974609;28;20544;-64
2024/03/06 07:34:47;;;;;;;27.17;25.80;;;21.60;57.80;;;;;;4974924;28;20470;-64
2024/03/06 07:37:14;;;;;;;25.80;24.70;;;21.60;57.70;;;;;;4974948;28;20435;-64
2024/03/06 07:39:41;;;;;;;26.83;25.63;;;21.60;57.60;;;;;;4974863;28;20494;-64
2024/03/06 07:42:09;;;;;;;27.20;25.70;;;21.60;57.50;;;;;;4974626;28;20475;-65
2024/03/06 07:44:36;;;;;;;26.83;25.63;;;21.70;57.50;;;;;;4974897;28;20472;-65
2024/03/06 07:47:03;;;;;;;26.30;25.00;;;21.70;57.40;;;;;;4974639;28;21063;-64
2024/03/06 07:49:32;;;;;;;27.43;26.10;;;21.70;57.30;;;;;;4974644;28;20452;-65
2024/03/06 07:51:58;;;;;;;26.60;25.33;;;21.70;57.20;;;;;;4974256;28;20443;-64
2024/03/06 07:54:25;;;;;;;27.47;25.97;;;21.70;57.10;;;;;;4974445;28;20475;-65
2024/03/06 07:56:53;;;;;;;27.57;26.23;;;21.80;57.20;;;;;;4974549;28;20440;-65
2024/03/06 07:59:20;;;;;;;27.80;26.50;;;21.80;57.10;;;;;;4974310;28;20455;-65
2024/03/06 08:01:47;;;;;;;27.03;25.63;;;21.80;57.10;;;;;;4974186;28;20448;-64
2024/03/06 08:04:14;;;;;;;27.30;25.27;;;21.80;57.00;;;;;;4974351;28;21055;-64
2024/03/06 08:06:42;;;;;;;27.00;25.80;;;21.90;57.00;;;;;;4974303;28;20554;-64
2024/03/06 08:09:09;;;;;;;26.63;25.33;;;21.90;56.90;;;;;;4974270;28;20447;-65
2024/03/06 08:11:36;;;;;;;26.77;25.47;;;21.90;56.80;;;;;;4974236;28;20976;-65
2024/03/06 08:14:02;;;;;;;27.03;25.70;;;21.90;56.80;;;;;;4973786;28;20479;-64
2024/03/06 08:16:30;;;;;;;27.30;26.10;;;21.90;56.80;;;;;;4974125;28;20444;-65
2024/03/06 08:18:57;;;;;;;26.53;25.13;;;21.90;56.70;;;;;;4974076;28;20451;-65
2024/03/06 08:21:23;;;;;;;26.30;25.07;;;22.00;56.70;;;;;;4974108;28;20547;-65
2024/03/06 08:23:51;;;;;;;26.70;25.40;;;22.00;56.70;;;;;;4973495;28;20451;-65
2024/03/06 08:26:19;;;;;;;27.10;25.90;;;22.00;56.60;;;;;;4973927;28;20479;-65
2024/03/06 08:28:47;;;;;;;26.93;25.83;;;22.10;56.60;;;;;;4974198;28;20442;-66
2024/03/06 08:31:13;;;;;;;26.43;25.23;;;22.10;56.60;;;;;;4973866;28;20451;-65
2024/03/06 08:33:40;;;;;;;25.77;24.67;;;22.10;56.50;;;;;;4973643;28;20946;-65
2024/03/06 08:36:08;;;;;;;26.90;25.60;;;22.10;56.40;;;;;;4973816;28;20860;-65
2024/03/06 08:38:34;;;;;;;26.27;25.03;;;22.10;56.40;;;;;;4973777;28;20451;-65
2024/03/06 08:41:02;;;;;;;26.33;25.23;;;22.10;56.30;;;;;;4973789;28;20460;-65
2024/03/06 08:43:29;;;;;;;26.23;24.93;;;22.20;56.40;;;;;;4973299;28;20934;-65
2024/03/06 08:45:56;;;;;;;27.53;25.93;;;22.20;56.30;;;;;;4973411;28;20468;-65
2024/03/06 08:48:22;;;;;;;26.70;25.50;;;22.20;56.20;;;;;;4973549;28;20456;-65
2024/03/06 08:50:50;;;;;;;26.07;25.07;;;22.20;56.20;;;;;;4973526;28;20451;-65
2024/03/06 08:53:17;;;;;;;26.27;25.07;;;22.30;56.30;;;;;;4973528;28;20448;-66
2024/03/06 08:55:44;;;;;;;26.00;24.90;;;22.30;56.20;;;;;;4973630;28;20459;-66
2024/03/06 08:58:13;;;;;;;25.63;24.53;;;22.30;56.10;;;;;;4973472;28;20447;-66
2024/03/06 09:00:41;;;;;;;26.30;25.20;;;22.30;56.10;;;;;;4973216;28;20452;-66
2024/03/06 09:03:07;;;;;;;25.40;24.40;;;22.30;56.10;;;;;;4972978;28;20448;-65
2024/03/06 09:05:34;;;;;;;27.20;25.97;;;22.40;56.10;;;;;;4973113;28;20459;-65
2024/03/06 09:08:01;;;;;;;25.70;24.47;;;22.30;56.00;;;;;;4973086;28;20495;-65
2024/03/06 09:10:28;;;;;;;25.80;24.60;;;22.40;56.00;;;;;;4972911;28;20455;-65
2024/03/06 09:12:54;;;;;;;26.37;25.10;;;22.40;56.00;;;;;;4972805;28;20448;-66
2024/03/06 09:15:24;;;;;;;26.37;25.13;;;22.40;55.90;;;;;;4973106;28;20996;-66
2024/03/06 09:17:50;;;;;;;26.10;25.00;;;22.40;55.90;;;;;;4973386;28;20443;-66
2024/03/06 09:20:17;;;;;;;25.60;24.40;;;22.40;55.80;;;;;;4973067;28;20829;-66
2024/03/06 09:22:44;;;;;;;25.60;24.50;;;22.50;55.80;;;;;;4972692;28;20452;-66
2024/03/06 09:25:13;;;;;;;25.80;24.70;;;22.50;55.80;;;;;;4973273;28;20476;-66
2024/03/06 09:27:40;;;;;;;27.23;26.03;;;22.50;55.80;;;;;;4972945;28;20526;-66
2024/03/06 09:30:08;;;;;;;27.30;26.10;;;22.50;55.70;;;;;;4972961;28;20451;-66
2024/03/06 09:32:36;;;;;;;26.77;25.57;;;22.50;55.70;;;;;;4972723;28;21008;-66
2024/03/06 09:35:04;;;;;;;28.33;27.03;;;22.60;55.70;;;;;;4972815;28;20470;-66
2024/03/06 09:37:32;;;;;;;26.70;25.60;;;22.60;55.70;;;;;;4972879;28;20444;-66
2024/03/06 09:39:59;;;;;;;26.20;25.10;;;22.60;55.60;;;;;;4972885;28;20440;-66
2024/03/06 09:42:26;;;;;;;26.23;25.03;;;22.60;55.60;;;;;;4972543;28;20448;-66
2024/03/06 09:44:54;;;;;;;27.10;25.90;;;22.60;55.60;;;;;;4972808;28;20472;-66
2024/03/06 09:47:24;;;;;;;28.20;27.00;;;22.60;55.50;;;;;;4972809;28;20479;-66
2024/03/06 09:49:54;;;;;;;27.60;25.93;;;22.70;55.60;;;;;;4972845;28;20463;-66
2024/03/06 09:52:21;;;;;;;27.23;26.03;;;22.60;55.50;;;;;;4972490;28;20448;-66
2024/03/06 09:54:49;;;;;;;27.97;26.50;;;22.70;55.60;;;;;;4972948;28;20475;-66
2024/03/06 09:57:16;;;;;;;28.03;26.73;;;22.70;55.50;;;;;;4972648;28;20890;-66
2024/03/06 09:59:43;;;;;;;28.40;26.70;;;22.70;55.50;;;;;;4972975;28;20543;-66
2024/03/06 10:02:25;;;;;;;27.63;26.40;;;22.80;55.50;;;;;;4972621;28;20464;-66
2024/03/06 10:04:53;;;;;;;27.47;26.33;;;22.80;55.50;;;;;;4973087;28;20476;-66
2024/03/06 10:07:20;;;;;;;27.50;26.20;;;22.80;55.50;;;;;;4972646;28;20875;-66
2024/03/06 10:09:48;;;;;;;27.60;26.40;;;22.80;55.50;;;;;;4972697;28;20938;-66
2024/03/06 10:12:18;;;;;;;27.93;26.47;;;22.80;55.40;;;;;;4972734;28;20452;-66
2024/03/06 10:14:51;;;;;;;28.60;27.40;;;22.80;55.40;;;;;;4972759;28;20476;-66
2024/03/06 10:17:22;;;;;;;27.83;26.63;;;22.80;55.40;;;;;;4972513;28;20809;-66
2024/03/06 10:19:51;;;;;;;27.90;26.60;;;22.80;55.30;;;;;;4972460;28;20821;-66
2024/03/06 10:22:19;;;;;;;27.27;26.17;;;22.90;55.40;;;;;;4971987;28;20447;-66
2024/03/06 10:24:47;;;;;;;27.30;25.90;;;22.90;55.40;;;;;;4975634;28;20459;-66
2024/03/06 10:27:17;;;;;;;26.80;25.50;;;22.90;55.30;;;;;;4976023;28;20483;-66
2024/03/06 10:29:44;;;;;;;28.27;26.87;;;22.90;55.30;;;;;;4976060;28;20443;-66
2024/03/06 10:32:11;;;;;;;27.50;26.20;;;22.90;55.30;;;;;;4975697;28;20945;-66
2024/03/06 10:34:39;;;;;;;29.27;27.87;;;22.90;55.30;;;;;;4975847;28;20978;-66
2024/03/06 10:37:06;;;;;;;27.33;26.13;;;23.00;55.30;;;;;;4976121;28;20451;-66
2024/03/06 10:39:36;;;;;;;29.67;28.37;;;23.00;55.30;;;;;;4975855;28;20615;-66
2024/03/06 10:42:05;;;;;;;28.50;27.20;;;23.00;55.30;;;;;;4975411;28;20467;-66
2024/03/06 10:44:36;;;;;;;28.40;27.10;;;23.00;55.20;;;;;;4975770;28;20782;-66
2024/03/06 10:47:06;;;;;;;27.50;26.37;;;23.00;55.20;;;;;;4975927;28;20541;-66
2024/03/06 10:49:34;;;;;;;27.90;26.70;;;23.00;55.20;;;;;;4975642;28;20443;-66
2024/03/06 10:52:03;;;;;;;27.70;26.57;;;23.10;55.20;;;;;;4975512;28;20944;-66
2024/03/06 10:54:32;;;;;;;26.73;25.53;;;23.10;55.20;;;;;;4975660;28;20475;-66
2024/03/06 10:57:00;;;;;;;27.10;25.90;;;23.10;55.20;;;;;;4975536;28;20451;-66
2024/03/06 10:59:28;;;;;;;27.40;26.30;;;23.20;55.30;;;;;;4975504;28;20447;-66
2024/03/06 11:01:56;;;;;;;26.67;25.57;;;23.10;55.20;;;;;;4975207;28;20795;-66
2024/03/06 11:04:28;;;;;;;26.77;25.57;;;23.20;55.20;;;;;;4975327;28;20464;-66
2024/03/06 11:06:55;;;;;;;26.90;25.60;;;23.10;55.10;;;;;;4975607;28;21017;-66
2024/03/06 11:09:22;;;;;;;26.63;25.43;;;23.10;55.10;;;;;;4975369;28;20443;-66
2024/03/06 11:11:51;;;;;;;25.97;24.87;;;23.10;55.00;;;;;;4974867;28;20439;-66
2024/03/06 11:14:21;;;;;;;26.40;25.20;;;23.10;55.00;;;;;;4975081;28;20863;-66
2024/03/06 11:16:59;;;;;;;27.40;26.10;;;23.20;55.00;;;;;;4975240;28;20444;-66
2024/03/06 11:19:27;;;;;;;26.83;25.63;;;23.20;55.00;;;;;;4975193;28;20447;-66
2024/03/06 11:21:54;;;;;;;25.60;24.50;;;23.20;55.00;;;;;;4974783;28;20456;-66
2024/03/06 11:24:23;;;;;;;27.23;26.03;;;23.30;55.10;;;;;;4974980;28;20464;-66
2024/03/06 11:26:58;;;;;;;27.13;25.93;;;23.30;55.00;;;;;;4974926;28;20446;-66
2024/03/06 11:29:29;;;;;;;26.63;25.43;;;23.30;55.10;;;;;;4974962;28;20454;-66
2024/03/06 11:32:06;;;;;;;28.13;26.93;;;23.30;55.20;;;;;;4974736;28;20440;-66
2024/03/06 11:34:33;;;;;;;27.70;26.40;;;23.30;55.00;;;;;;4974592;28;20475;-66
2024/03/06 11:37:04;;;;;;;28.27;26.97;;;23.40;55.00;;;;;;4974920;28;20806;-66
2024/03/06 11:39:36;;;;;;;27.30;26.10;;;23.40;55.00;;;;;;4975020;28;20447;-66
2024/03/06 11:42:04;;;;;;;26.17;24.97;;;23.40;55.00;;;;;;4974663;28;20447;-66
2024/03/06 11:44:33;;;;;;;28.00;26.70;;;23.40;55.00;;;;;;4974951;28;20867;-66
2024/03/06 11:47:01;;;;;;;25.10;24.00;;;23.40;55.00;;;;;;4974861;28;20571;-66
2024/03/06 11:49:31;;;;;;;26.40;25.30;;;23.40;55.40;;;;;;4974625;28;20440;-66
2024/03/06 11:52:03;;;;;;;27.87;26.57;;;23.40;54.90;;;;;;4974450;28;20514;-66
2024/03/06 11:54:31;;;;;;;27.00;25.90;;;23.40;54.80;;;;;;4974568;28;20466;-66
2024/03/06 11:56:59;;;;;;;27.17;25.87;;;23.40;54.80;;;;;;4974504;28;20450;-66
2024/03/06 11:59:27;;;;;;;26.63;25.47;;;23.40;54.80;;;;;;4974552;28;20538;-66
2024/03/06 12:01:56;;;;;;;25.50;24.40;;;23.50;54.90;;;;;;4974137;28;20444;-66
2024/03/06 12:04:24;;;;;;;26.67;25.47;;;23.50;54.90;;;;;;4974276;28;20981;-66
2024/03/06 12:06:51;;;;;;;25.77;24.77;;;23.50;54.90;;;;;;4974329;28;20893;-66
2024/03/06 12:09:18;;;;;;;24.83;23.73;;;23.50;54.80;;;;;;4974388;28;20451;-66
2024/03/06 12:11:45;;;;;;;25.70;24.50;;;23.50;54.80;;;;;;4974398;28;20447;-66
2024/03/06 12:14:16;;;;;;;27.43;26.27;;;23.60;54.80;;;;;;4974046;28;20475;-66
2024/03/06 12:16:44;;;;;;;27.17;25.97;;;23.60;54.80;;;;;;4974337;28;20526;-66
2024/03/06 12:19:12;;;;;;;25.97;24.87;;;23.60;54.70;;;;;;4974438;28;20436;-66
2024/03/06 12:21:42;;;;;;;26.80;25.50;;;23.60;54.70;;;;;;4974135;28;20471;-66
2024/03/06 12:24:10;;;;;;;27.00;25.73;;;23.60;54.70;;;;;;4973832;28;20499;-66
2024/03/06 12:26:38;;;;;;;25.60;24.37;;;23.60;54.70;;;;;;4974004;28;20456;-66
2024/03/06 12:29:06;;;;;;;25.87;24.70;;;23.70;54.80;;;;;;4973917;28;20518;-66